Macau, China
Current Conditions -  °F | °C
As of 12:00 PM on Thursday 18 Dec 2014 (Local Time) from VMMC Reporting Station
Few Clouds Few Clouds  
Wind Chill: 55°   Ceiling: Unl
Heat Index: 55°   Visibility: 6mi
Dew Point: 34°   Wind: 17mph
Humidity: 44%   Direction: 10°N
Pressure: 30.33"   Gusts: NA
Location:  22.2°N, 113.54°E
Report Text: VMMC 180400Z 01015KT 9999 FEW045 13/01 Q1027 NOSIG
Loading
Personal Weather Stations






























Interactive Weather Map New forecast layout! Learn more

10-Day Weather Forecast

Advertisements
Track Severe Weather on mobile